Time;durP1;ratioP1;P1;durP2;ratioP2;P2;SDS_P1;SDS_P2;PMS_P1;PMS_P2;Temp;Humidity;BMP_temperature;BMP_pressure;BME280_temperature;BME280_humidity;BME280_pressure;Samples;Min_cycle;Max_cycle;Signal;HPM_P1;HPM_P2
2023/04/30 00:00:46;;;;;;;2.42;2.22;;;18.70;53.60;;;;;;5065620;28;46317;-65
2023/04/30 00:03:12;;;;;;;2.42;2.22;;;18.70;53.60;;;;;;5065934;28;45372;-65
2023/04/30 00:05:39;;;;;;;2.75;2.55;;;18.60;53.60;;;;;;5064939;28;45324;-65
2023/04/30 00:08:06;;;;;;;3.47;2.22;;;18.60;53.60;;;;;;5066066;28;45510;-66
2023/04/30 00:10:34;;;;;;;2.80;2.60;;;18.60;53.60;;;;;;5065511;28;45350;-65
2023/04/30 00:13:01;;;;;;;2.65;2.42;;;18.60;53.60;;;;;;5065669;28;45365;-66
2023/04/30 00:15:28;;;;;;;3.20;2.38;;;18.60;53.60;;;;;;5065924;28;45321;-65
2023/04/30 00:17:55;;;;;;;2.45;2.20;;;18.60;53.70;;;;;;5065799;28;45563;-65
2023/04/30 00:20:22;;;;;;;3.42;2.10;;;18.60;53.60;;;;;;5065480;28;46322;-66
2023/04/30 00:22:48;;;;;;;2.42;2.25;;;18.60;53.70;;;;;;5065351;28;45336;-65
2023/04/30 00:25:15;;;;;;;2.40;2.20;;;18.50;53.70;;;;;;5065630;28;45401;-65
2023/04/30 00:27:44;;;;;;;2.42;2.22;;;18.50;53.70;;;;;;5065408;28;45506;-65
2023/04/30 00:30:11;;;;;;;2.05;1.92;;;18.50;53.70;;;;;;5065371;28;45254;-66
2023/04/30 00:32:38;;;;;;;2.47;2.28;;;18.50;53.70;;;;;;5065226;28;45346;-66
2023/04/30 00:35:06;;;;;;;2.50;2.25;;;18.50;53.70;;;;;;5065589;28;45440;-66
2023/04/30 00:37:33;;;;;;;2.25;2.08;;;18.50;53.70;;;;;;5065712;28;45331;-66
2023/04/30 00:40:00;;;;;;;2.17;2.03;;;18.50;53.80;;;;;;5065116;28;46386;-65
2023/04/30 00:42:26;;;;;;;2.92;2.28;;;18.50;53.70;;;;;;5065300;28;45325;-65
2023/04/30 00:44:55;;;;;;;2.50;2.30;;;18.50;53.80;;;;;;5065635;28;45352;-65
2023/04/30 00:47:21;;;;;;;2.35;2.17;;;18.40;53.90;;;;;;5065478;28;45266;-65
2023/04/30 00:49:48;;;;;;;2.70;2.50;;;18.40;53.90;;;;;;5065082;28;45242;-65
2023/04/30 00:52:15;;;;;;;2.50;2.15;;;18.40;53.90;;;;;;5065141;28;45316;-65
2023/04/30 00:54:42;;;;;;;2.67;2.42;;;18.40;53.90;;;;;;5065175;28;45405;-65
2023/04/30 00:57:09;;;;;;;3.15;2.80;;;18.40;54.00;;;;;;5065312;28;45316;-65
2023/04/30 00:59:36;;;;;;;2.50;2.30;;;18.40;54.00;;;;;;5064870;28;45535;-65
2023/04/30 01:02:04;;;;;;;2.35;2.15;;;18.40;54.00;;;;;;5064761;28;45396;-65
2023/04/30 01:04:31;;;;;;;2.53;2.30;;;18.40;54.00;;;;;;5065007;28;45312;-65
2023/04/30 01:07:00;;;;;;;2.00;1.90;;;18.40;54.00;;;;;;5065102;28;45440;-65
2023/04/30 01:09:28;;;;;;;2.58;2.38;;;18.30;54.00;;;;;;5064693;28;47267;-65
2023/04/30 01:12:00;;;;;;;2.55;2.33;;;18.30;54.10;;;;;;5064748;28;45416;-65
2023/04/30 01:14:28;;;;;;;2.20;2.00;;;18.30;54.00;;;;;;5064842;28;45420;-65
2023/04/30 01:17:00;;;;;;;2.95;2.28;;;18.30;54.10;;;;;;5066372;28;45347;-65
2023/04/30 01:19:36;;;;;;;2.70;2.50;;;18.30;54.10;;;;;;5068352;28;45475;-65
2023/04/30 01:22:04;;;;;;;2.25;1.95;;;18.20;54.10;;;;;;5068365;28;45400;-66
2023/04/30 01:25:02;;;;;;;2.50;2.30;;;18.20;54.10;;;;;;5068590;28;45380;-65
2023/04/30 01:27:32;;;;;;;1.98;1.88;;;18.20;54.10;;;;;;5068205;28;45371;-65
2023/04/30 01:30:00;;;;;;;2.22;2.03;;;18.20;54.20;;;;;;5068021;28;45289;-65
2023/04/30 01:32:27;;;;;;;2.40;2.20;;;18.20;54.20;;;;;;5059817;28;45298;-65
2023/04/30 01:34:54;;;;;;;2.75;2.28;;;18.20;54.80;;;;;;5068249;28;45334;-65
2023/04/30 01:37:24;;;;;;;2.55;2.20;;;18.20;54.30;;;;;;5068357;28;45261;-65
2023/04/30 01:40:05;;;;;;;2.65;2.10;;;18.20;54.30;;;;;;5068010;28;46343;-65
2023/04/30 01:42:35;;;;;;;2.22;2.03;;;18.10;54.20;;;;;;5067921;28;45453;-65
2023/04/30 01:45:17;;;;;;;2.30;2.10;;;18.10;54.30;;;;;;5068086;28;45389;-65
2023/04/30 01:47:48;;;;;;;3.25;2.17;;;18.10;54.30;;;;;;5068288;28;45414;-65
2023/04/30 01:50:20;;;;;;;2.25;2.10;;;18.10;54.30;;;;;;5067826;28;45362;-65
2023/04/30 01:52:49;;;;;;;1.80;1.70;;;18.10;54.30;;;;;;5068051;28;45322;-65
2023/04/30 01:55:21;;;;;;;2.60;2.40;;;18.10;54.30;;;;;;5068017;28;45325;-65
2023/04/30 01:57:52;;;;;;;2.45;2.25;;;18.10;54.90;;;;;;5068227;28;45540;-65
2023/04/30 02:00:20;;;;;;;3.22;2.50;;;18.00;54.30;;;;;;5067766;28;47340;-65
2023/04/30 02:02:47;;;;;;;2.40;2.20;;;18.00;54.30;;;;;;5068037;28;45583;-65
2023/04/30 02:05:14;;;;;;;2.28;2.08;;;18.00;54.30;;;;;;5067877;28;45492;-65
2023/04/30 02:07:42;;;;;;;2.40;2.20;;;18.00;54.30;;;;;;5067988;28;45374;-65
2023/04/30 02:10:10;;;;;;;2.40;2.20;;;18.00;54.40;;;;;;5067479;28;46727;-65
2023/04/30 02:12:37;;;;;;;2.30;2.10;;;18.00;54.40;;;;;;5067558;28;45460;-65
2023/04/30 02:15:05;;;;;;;2.65;2.22;;;18.00;54.40;;;;;;5067781;28;45369;-65
2023/04/30 02:17:33;;;;;;;2.33;2.13;;;17.90;54.50;;;;;;5067725;28;45343;-65
2023/04/30 02:20:00;;;;;;;1.98;1.88;;;17.90;54.50;;;;;;5067289;28;46731;-65
2023/04/30 02:22:27;;;;;;;2.92;2.25;;;17.90;54.40;;;;;;5067452;28;45235;-65
2023/04/30 02:24:54;;;;;;;2.30;2.10;;;17.90;54.40;;;;;;5067794;28;45325;-65
2023/04/30 02:27:21;;;;;;;2.40;2.20;;;17.90;54.50;;;;;;5067573;28;45533;-65
2023/04/30 02:29:48;;;;;;;2.38;2.17;;;17.90;54.50;;;;;;5066562;28;46596;-65
2023/04/30 02:32:15;;;;;;;2.45;2.15;;;17.90;54.50;;;;;;5067214;28;45286;-65
2023/04/30 02:34:43;;;;;;;2.80;2.42;;;17.90;54.50;;;;;;5067349;28;45265;-65
2023/04/30 02:37:10;;;;;;;2.28;2.08;;;17.90;54.50;;;;;;5067691;28;45272;-65
2023/04/30 02:39:37;;;;;;;3.45;2.15;;;17.90;54.60;;;;;;5067155;28;45708;-65
2023/04/30 02:42:05;;;;;;;2.50;2.30;;;17.90;54.60;;;;;;5067192;28;45346;-65
2023/04/30 02:44:32;;;;;;;2.42;2.22;;;17.90;54.60;;;;;;5067455;28;45262;-65
2023/04/30 02:46:59;;;;;;;2.25;2.05;;;17.80;54.50;;;;;;5067405;28;45380;-65
2023/04/30 02:49:26;;;;;;;2.10;2.00;;;17.80;54.60;;;;;;5066887;28;45363;-65
2023/04/30 02:51:54;;;;;;;2.15;1.95;;;17.80;54.60;;;;;;5066951;28;45332;-65
2023/04/30 02:54:21;;;;;;;2.60;2.33;;;17.80;54.60;;;;;;5067127;28;45306;-65
2023/04/30 02:56:48;;;;;;;2.55;2.35;;;17.80;54.70;;;;;;5067282;28;45405;-65
2023/04/30 02:59:14;;;;;;;2.47;2.25;;;17.80;54.70;;;;;;5066871;28;46380;-65
2023/04/30 03:01:41;;;;;;;2.10;2.00;;;17.80;54.70;;;;;;5066704;28;45379;-66
2023/04/30 03:04:08;;;;;;;2.30;2.10;;;17.80;54.70;;;;;;5066932;28;45301;-65
2023/04/30 03:06:35;;;;;;;2.22;2.03;;;17.80;54.80;;;;;;5067013;28;45182;-65
2023/04/30 03:09:03;;;;;;;4.28;2.30;;;17.80;54.80;;;;;;5066608;28;46524;-65
2023/04/30 03:11:30;;;;;;;2.60;2.22;;;17.80;54.80;;;;;;5066528;28;45461;-65
2023/04/30 03:13:57;;;;;;;2.72;2.17;;;17.80;54.80;;;;;;5067093;28;45355;-65
2023/04/30 03:16:24;;;;;;;3.20;2.40;;;17.80;54.90;;;;;;5066891;28;45460;-65
2023/04/30 03:18:51;;;;;;;2.80;2.42;;;17.80;54.80;;;;;;5066404;28;46405;-65
2023/04/30 03:21:17;;;;;;;2.45;2.25;;;17.80;54.80;;;;;;5066372;28;45274;-65
2023/04/30 03:23:45;;;;;;;3.20;2.55;;;17.80;54.80;;;;;;5066536;28;45403;-65
2023/04/30 03:26:14;;;;;;;3.33;2.53;;;17.70;54.80;;;;;;5066607;28;45399;-66
2023/04/30 03:28:40;;;;;;;2.53;2.33;;;17.70;54.80;;;;;;5065721;28;46295;-66
2023/04/30 03:31:07;;;;;;;2.25;2.05;;;17.70;54.80;;;;;;5066231;28;45286;-65
2023/04/30 03:33:36;;;;;;;2.78;2.50;;;17.70;54.90;;;;;;5066572;28;45307;-65
2023/04/30 03:36:03;;;;;;;2.50;2.30;;;17.70;54.90;;;;;;5066547;28;45384;-65
2023/04/30 03:38:30;;;;;;;2.65;2.00;;;17.70;54.90;;;;;;5066042;28;46769;-65
2023/04/30 03:40:59;;;;;;;2.50;2.25;;;17.70;54.90;;;;;;5064856;28;45266;-65
2023/04/30 03:43:27;;;;;;;2.60;2.40;;;17.70;54.90;;;;;;5066226;28;45312;-65
2023/04/30 03:45:54;;;;;;;2.67;2.38;;;17.70;54.90;;;;;;5066319;28;45332;-65
2023/04/30 03:48:21;;;;;;;2.83;2.58;;;17.70;54.90;;;;;;5065919;28;46414;-65
2023/04/30 03:50:48;;;;;;;2.78;2.58;;;17.70;55.00;;;;;;5066157;28;45143;-65
2023/04/30 03:53:15;;;;;;;2.47;2.28;;;17.70;55.00;;;;;;5066564;28;45500;-65
2023/04/30 03:55:42;;;;;;;2.50;2.30;;;17.70;54.90;;;;;;5066358;28;45626;-65
2023/04/30 03:58:09;;;;;;;2.80;2.45;;;17.70;55.00;;;;;;5066011;28;45414;-65
2023/04/30 04:00:37;;;;;;;2.42;2.22;;;17.60;55.00;;;;;;5066147;28;45395;-65
2023/04/30 04:03:04;;;;;;;2.70;2.50;;;17.60;55.00;;;;;;5066047;28;45315;-65
2023/04/30 04:05:31;;;;;;;2.60;2.40;;;17.60;55.00;;;;;;5066288;28;45471;-65
2023/04/30 04:07:58;;;;;;;2.85;2.47;;;17.60;55.00;;;;;;5065814;28;45369;-65
2023/04/30 04:10:25;;;;;;;2.40;2.20;;;17.60;55.10;;;;;;5065692;28;45389;-66
2023/04/30 04:12:52;;;;;;;2.60;2.40;;;17.60;55.10;;;;;;5065866;28;45316;-65
2023/04/30 04:15:19;;;;;;;2.53;2.33;;;17.60;55.10;;;;;;5066079;28;45467;-65
2023/04/30 04:17:47;;;;;;;3.63;2.70;;;17.60;55.10;;;;;;5065641;28;45486;-65
2023/04/30 04:20:14;;;;;;;2.60;2.40;;;17.60;55.10;;;;;;5065940;28;45494;-66
2023/04/30 04:22:41;;;;;;;2.90;2.40;;;17.60;55.10;;;;;;5065719;28;45261;-65
2023/04/30 04:25:08;;;;;;;2.97;2.60;;;17.60;55.10;;;;;;5065906;28;45261;-65
2023/04/30 04:27:35;;;;;;;2.72;2.47;;;17.60;55.10;;;;;;5065066;28;45760;-65
2023/04/30 04:30:02;;;;;;;2.55;2.35;;;17.60;55.10;;;;;;5065252;28;45376;-65
2023/04/30 04:32:29;;;;;;;2.88;2.20;;;17.60;55.10;;;;;;5065378;28;45347;-65
2023/04/30 04:34:57;;;;;;;2.55;2.35;;;17.60;55.10;;;;;;5065845;28;45251;-65
2023/04/30 04:37:24;;;;;;;3.53;2.25;;;17.60;55.10;;;;;;5065129;28;46778;-65
2023/04/30 04:39:51;;;;;;;2.60;2.40;;;17.60;55.10;;;;;;5065211;28;45383;-65
2023/04/30 04:42:18;;;;;;;2.47;2.22;;;17.60;55.10;;;;;;5065099;28;45420;-65
2023/04/30 04:44:46;;;;;;;2.50;2.30;;;17.60;55.10;;;;;;5065322;28;45518;-66
2023/04/30 04:47:13;;;;;;;2.65;2.45;;;17.60;55.10;;;;;;5065038;28;46124;-65
2023/04/30 04:49:40;;;;;;;2.85;2.60;;;17.60;55.10;;;;;;5065064;28;45325;-65
2023/04/30 04:52:08;;;;;;;2.53;2.30;;;17.60;55.10;;;;;;5064837;28;45372;-65
2023/04/30 04:54:35;;;;;;;3.03;2.72;;;17.60;55.10;;;;;;5065370;28;45428;-65
2023/04/30 04:57:02;;;;;;;2.42;2.22;;;17.60;55.10;;;;;;5064991;28;45372;-65
2023/04/30 04:59:29;;;;;;;2.83;2.47;;;17.60;55.10;;;;;;5056965;28;45302;-65
2023/04/30 05:01:56;;;;;;;2.65;2.45;;;17.60;55.10;;;;;;5062454;28;45383;-65
2023/04/30 05:04:23;;;;;;;2.63;2.42;;;17.60;55.10;;;;;;5065366;28;45583;-65
2023/04/30 05:06:49;;;;;;;3.53;2.42;;;17.60;55.20;;;;;;5065174;28;46395;-65
2023/04/30 05:09:18;;;;;;;3.08;2.78;;;17.60;55.20;;;;;;5064866;28;45278;-65
2023/04/30 05:11:45;;;;;;;2.58;2.38;;;17.60;55.10;;;;;;5064880;28;45290;-65
2023/04/30 05:14:11;;;;;;;2.50;2.30;;;17.60;55.10;;;;;;5065137;28;45409;-65
2023/04/30 05:16:38;;;;;;;2.35;2.15;;;17.60;55.20;;;;;;5065254;28;46127;-65
2023/04/30 05:19:05;;;;;;;2.47;2.20;;;17.60;55.10;;;;;;5064813;28;45403;-65
2023/04/30 05:21:32;;;;;;;2.53;2.33;;;17.60;55.10;;;;;;5064687;28;45343;-65
2023/04/30 05:23:59;;;;;;;2.90;2.58;;;17.60;55.10;;;;;;5065069;28;45514;-65
2023/04/30 05:26:28;;;;;;;3.85;2.60;;;17.60;55.10;;;;;;5064524;28;45374;-65
2023/04/30 05:28:54;;;;;;;2.20;2.00;;;17.60;55.10;;;;;;5064790;28;45486;-65
2023/04/30 05:31:22;;;;;;;2.50;2.30;;;17.60;55.10;;;;;;5064607;28;45234;-65
2023/04/30 05:33:49;;;;;;;2.33;2.13;;;17.60;55.70;;;;;;5065031;28;45304;-65
2023/04/30 05:36:16;;;;;;;2.45;2.25;;;17.60;55.10;;;;;;5064355;28;45398;-65
2023/04/30 05:38:43;;;;;;;3.05;2.10;;;17.60;55.00;;;;;;5064471;28;45418;-65
2023/04/30 05:41:11;;;;;;;2.55;2.35;;;17.60;55.10;;;;;;5064686;28;45406;-65
2023/04/30 05:43:39;;;;;;;2.83;2.58;;;17.60;55.10;;;;;;5065002;28;45306;-65
2023/04/30 05:46:06;;;;;;;2.30;2.10;;;17.60;55.00;;;;;;5064311;28;46263;-65
2023/04/30 05:48:33;;;;;;;2.20;2.00;;;17.60;55.10;;;;;;5064366;28;45411;-65
2023/04/30 05:51:00;;;;;;;2.83;2.45;;;17.60;55.10;;;;;;5064378;28;45455;-65
2023/04/30 05:53:27;;;;;;;2.72;2.42;;;17.60;55.00;;;;;;5064824;28;45489;-65
2023/04/30 05:55:53;;;;;;;2.72;2.25;;;17.60;55.10;;;;;;5064325;28;46412;-65
2023/04/30 05:58:20;;;;;;;3.25;2.35;;;17.60;55.10;;;;;;5061693;28;45348;-65
2023/04/30 06:00:50;;;;;;;2.08;1.98;;;17.60;55.10;;;;;;5064516;28;45340;-66
2023/04/30 06:03:18;;;;;;;2.50;2.30;;;17.60;55.10;;;;;;5064950;28;45425;-65
2023/04/30 06:05:44;;;;;;;2.65;2.20;;;17.70;55.00;;;;;;5067576;28;46282;-65
2023/04/30 06:08:11;;;;;;;2.40;2.20;;;17.60;55.00;;;;;;5067893;28;45370;-65
2023/04/30 06:10:38;;;;;;;2.63;2.35;;;17.60;55.00;;;;;;5067614;28;45388;-65
2023/04/30 06:13:05;;;;;;;3.28;2.30;;;17.70;55.00;;;;;;5067715;28;45353;-65
2023/04/30 06:15:32;;;;;;;2.80;2.40;;;17.70;55.00;;;;;;5067499;28;46889;-66
2023/04/30 06:18:00;;;;;;;2.67;2.40;;;17.70;54.90;;;;;;5067667;28;45297;-66
2023/04/30 06:20:27;;;;;;;2.72;2.17;;;17.70;54.90;;;;;;5059278;28;45476;-65
2023/04/30 06:22:54;;;;;;;2.50;2.30;;;17.70;54.90;;;;;;5067715;28;45353;-65
2023/04/30 06:25:21;;;;;;;2.78;2.35;;;17.70;54.90;;;;;;5067411;28;45373;-65
2023/04/30 06:27:48;;;;;;;2.28;2.08;;;17.70;54.90;;;;;;5067138;28;45226;-65
2023/04/30 06:30:15;;;;;;;2.20;2.00;;;17.80;54.90;;;;;;5067487;28;45282;-66
2023/04/30 06:32:41;;;;;;;1.85;1.75;;;17.80;54.90;;;;;;5067571;28;45478;-65
2023/04/30 06:35:10;;;;;;;2.45;2.25;;;17.80;54.80;;;;;;5067192;28;46438;-65
2023/04/30 06:37:37;;;;;;;2.45;2.25;;;17.80;54.80;;;;;;5067132;28;45637;-66
2023/04/30 06:40:05;;;;;;;2.25;2.05;;;17.80;54.80;;;;;;5067384;28;45320;-65
2023/04/30 06:42:33;;;;;;;2.58;2.38;;;17.80;54.80;;;;;;5067219;28;45342;-65
2023/04/30 06:45:01;;;;;;;2.70;2.30;;;17.80;54.70;;;;;;5067048;28;45360;-65
2023/04/30 06:47:27;;;;;;;2.10;1.90;;;17.80;54.70;;;;;;5067584;28;45341;-65
2023/04/30 06:49:54;;;;;;;2.42;2.22;;;17.80;54.70;;;;;;5067138;28;45207;-65
2023/04/30 06:52:22;;;;;;;2.40;1.90;;;17.80;54.70;;;;;;5067219;28;45305;-66
2023/04/30 06:54:50;;;;;;;2.17;1.98;;;17.80;54.70;;;;;;5066838;28;46731;-65
2023/04/30 06:57:16;;;;;;;2.20;2.00;;;17.90;54.60;;;;;;5067010;28;45374;-66
2023/04/30 06:59:43;;;;;;;3.17;1.90;;;17.90;54.70;;;;;;5066979;28;45378;-65
2023/04/30 07:02:10;;;;;;;2.20;2.00;;;17.90;54.70;;;;;;5067063;28;45297;-65
2023/04/30 07:04:37;;;;;;;1.80;1.70;;;17.90;54.60;;;;;;5066598;28;46520;-65
2023/04/30 07:07:04;;;;;;;2.42;2.20;;;18.00;54.60;;;;;;5066735;28;45336;-65
2023/04/30 07:09:32;;;;;;;7.05;2.40;;;18.00;54.80;;;;;;5067088;28;45293;-65
2023/04/30 07:11:59;;;;;;;2.58;2.35;;;18.00;54.60;;;;;;5066890;28;45300;-65
2023/04/30 07:14:26;;;;;;;2.22;2.03;;;18.00;54.70;;;;;;5066345;28;47036;-65
2023/04/30 07:16:53;;;;;;;4.25;2.10;;;18.00;54.60;;;;;;5066902;28;45715;-65
2023/04/30 07:19:20;;;;;;;3.22;2.00;;;18.00;54.50;;;;;;5066831;28;45378;-65
2023/04/30 07:21:46;;;;;;;2.08;1.88;;;18.00;54.40;;;;;;5066799;28;45614;-66
2023/04/30 07:24:13;;;;;;;3.75;2.33;;;18.10;54.40;;;;;;5066219;28;46369;-66
2023/04/30 07:26:41;;;;;;;2.20;1.88;;;18.10;54.30;;;;;;5066189;28;45304;-67
2023/04/30 07:29:09;;;;;;;1.90;1.80;;;18.10;54.30;;;;;;5066231;28;45499;-67
2023/04/30 07:31:35;;;;;;;2.17;1.98;;;18.10;54.00;;;;;;5066440;28;45317;-66
2023/04/30 07:34:02;;;;;;;2.10;1.50;;;18.10;53.90;;;;;;5066036;28;46729;-65
2023/04/30 07:36:29;;;;;;;2.05;1.90;;;18.20;53.70;;;;;;5058019;28;45263;-66
2023/04/30 07:38:56;;;;;;;1.92;1.83;;;18.20;53.70;;;;;;5066271;28;45371;-66
2023/04/30 07:41:24;;;;;;;1.70;1.60;;;18.20;53.70;;;;;;5066292;28;45529;-67
2023/04/30 07:43:53;;;;;;;1.98;1.88;;;18.20;53.50;;;;;;5065816;28;45400;-67
2023/04/30 07:46:19;;;;;;;1.70;1.60;;;18.30;53.60;;;;;;5066159;28;45381;-66
2023/04/30 07:48:46;;;;;;;1.45;1.35;;;18.30;53.70;;;;;;5066257;28;45317;-66
2023/04/30 07:51:13;;;;;;;1.85;1.75;;;18.30;53.40;;;;;;5066033;28;45548;-67
2023/04/30 07:53:40;;;;;;;1.55;1.45;;;18.30;53.20;;;;;;5065756;28;45488;-66
2023/04/30 07:56:08;;;;;;;3.10;2.05;;;18.40;53.00;;;;;;5065641;28;45456;-67
2023/04/30 07:58:34;;;;;;;3.42;1.65;;;18.40;52.90;;;;;;5065785;28;45418;-67
2023/04/30 08:01:03;;;;;;;1.40;1.30;;;18.40;52.60;;;;;;5065985;28;45420;-67
2023/04/30 08:03:29;;;;;;;1.85;1.70;;;18.40;52.40;;;;;;5065423;28;45317;-66
2023/04/30 08:05:56;;;;;;;2.65;1.70;;;18.50;52.40;;;;;;5065487;28;45359;-67
2023/04/30 08:08:23;;;;;;;1.50;1.40;;;18.50;52.20;;;;;;5065753;28;45381;-66
2023/04/30 08:10:50;;;;;;;1.30;1.30;;;18.50;52.20;;;;;;5065827;28;45412;-66
2023/04/30 08:13:17;;;;;;;1.40;1.30;;;18.50;51.80;;;;;;5065378;28;46384;-67
2023/04/30 08:15:43;;;;;;;1.40;1.30;;;18.50;51.60;;;;;;5065660;28;45433;-67
2023/04/30 08:18:12;;;;;;;1.50;1.40;;;18.60;51.70;;;;;;5065701;28;45506;-67
2023/04/30 08:20:39;;;;;;;1.92;1.38;;;18.60;51.60;;;;;;5065625;28;45334;-66
2023/04/30 08:23:05;;;;;;;1.38;1.30;;;18.60;51.50;;;;;;5065282;28;45266;-65
2023/04/30 08:25:33;;;;;;;2.17;1.92;;;18.70;51.50;;;;;;5065055;28;45262;-65
2023/04/30 08:27:59;;;;;;;3.30;3.00;;;18.70;51.50;;;;;;5064608;28;45460;-66
2023/04/30 08:30:26;;;;;;;2.80;2.60;;;18.70;51.60;;;;;;5065349;28;45381;-65
2023/04/30 08:32:53;;;;;;;3.13;2.83;;;18.70;51.50;;;;;;5065218;28;46380;-65
2023/04/30 08:35:21;;;;;;;2.60;2.40;;;18.80;51.60;;;;;;5065258;28;45347;-66
2023/04/30 08:37:48;;;;;;;2.78;2.58;;;18.80;51.70;;;;;;5065292;28;45325;-66
2023/04/30 08:40:15;;;;;;;2.08;1.95;;;18.80;51.70;;;;;;5065455;28;45372;-65
2023/04/30 08:42:45;;;;;;;2.25;2.10;;;18.80;51.70;;;;;;5064878;28;47009;-65
2023/04/30 08:45:13;;;;;;;2.38;2.10;;;18.90;51.80;;;;;;5065137;28;45346;-66
2023/04/30 08:47:39;;;;;;;2.38;2.10;;;18.90;51.80;;;;;;5065097;28;45437;-65
2023/04/30 08:50:07;;;;;;;2.40;1.90;;;18.90;51.80;;;;;;5065238;28;45356;-66
2023/04/30 08:52:36;;;;;;;3.67;2.20;;;19.00;51.90;;;;;;5064814;28;45309;-66
2023/04/30 08:55:03;;;;;;;1.73;1.63;;;19.00;51.80;;;;;;5064996;28;45396;-66
2023/04/30 08:57:29;;;;;;;2.05;1.92;;;19.00;51.90;;;;;;5064895;28;45479;-65
2023/04/30 08:59:56;;;;;;;2.80;1.92;;;19.00;51.90;;;;;;5065272;28;45492;-66
2023/04/30 09:02:23;;;;;;;2.72;1.60;;;19.10;52.00;;;;;;5064670;28;45453;-66
2023/04/30 09:04:50;;;;;;;2.78;1.80;;;19.10;51.90;;;;;;5064902;28;45324;-65
2023/04/30 09:07:17;;;;;;;3.60;1.85;;;19.10;51.90;;;;;;5064779;28;45293;-65
2023/04/30 09:09:45;;;;;;;2.00;1.90;;;19.20;52.00;;;;;;5065027;28;45291;-65
2023/04/30 09:12:14;;;;;;;2.08;1.88;;;19.20;52.00;;;;;;5064493;28;46866;-65
2023/04/30 09:14:41;;;;;;;2.38;1.80;;;19.20;51.90;;;;;;5064820;28;45309;-66
2023/04/30 09:17:08;;;;;;;1.83;1.73;;;19.30;52.00;;;;;;5064794;28;45115;-66
2023/04/30 09:19:35;;;;;;;1.60;1.50;;;19.30;51.90;;;;;;5064879;28;45578;-66
2023/04/30 09:22:20;;;;;;;1.70;1.60;;;19.30;52.50;;;;;;5064530;28;47557;-65
2023/04/30 09:24:49;;;;;;;1.90;1.80;;;19.30;51.90;;;;;;5064842;28;45356;-66
2023/04/30 09:27:17;;;;;;;3.15;1.83;;;19.40;52.00;;;;;;5064603;28;46526;-66
2023/04/30 09:29:45;;;;;;;1.77;1.67;;;19.40;52.00;;;;;;5064801;28;45242;-67
2023/04/30 09:32:11;;;;;;;2.85;1.45;;;19.40;52.00;;;;;;5064408;28;46939;-67
2023/04/30 09:34:38;;;;;;;5.22;2.50;;;19.50;51.60;;;;;;5064586;28;45380;-66
2023/04/30 09:37:06;;;;;;;2.38;1.92;;;19.50;51.30;;;;;;5064672;28;45406;-67
2023/04/30 09:39:33;;;;;;;2.13;1.95;;;19.50;50.70;;;;;;5068090;28;45297;-65
2023/04/30 09:42:09;;;;;;;2.53;1.90;;;19.50;50.70;;;;;;5067832;28;45246;-67
2023/04/30 09:44:38;;;;;;;3.58;1.80;;;19.60;50.50;;;;;;5067881;28;45281;-66
2023/04/30 09:47:05;;;;;;;1.60;1.50;;;19.60;50.30;;;;;;5068031;28;45411;-65
2023/04/30 09:49:32;;;;;;;1.95;1.50;;;19.60;49.80;;;;;;5068142;28;45124;-66
2023/04/30 09:51:59;;;;;;;2.70;1.88;;;19.60;49.70;;;;;;5067298;28;46253;-64
2023/04/30 09:54:28;;;;;;;8.10;6.05;;;19.70;49.80;;;;;;5067733;28;45399;-65
2023/04/30 09:56:56;;;;;;;16.38;13.55;;;19.70;49.40;;;;;;5067972;28;45273;-67
2023/04/30 09:59:29;;;;;;;24.92;22.10;;;19.70;49.10;;;;;;5068329;28;45250;-63
2023/04/30 10:01:56;;;;;;;18.63;15.60;;;19.70;49.10;;;;;;5080534;28;45685;-65
2023/04/30 10:04:23;;;;;;;18.48;16.05;;;19.80;49.10;;;;;;5087966;28;45206;-65
2023/04/30 10:06:51;;;;;;;19.27;14.00;;;19.80;49.10;;;;;;5088158;28;45296;-65
2023/04/30 10:09:18;;;;;;;16.05;12.40;;;19.80;48.90;;;;;;5076475;28;45336;-67
2023/04/30 10:11:45;;;;;;;13.23;10.52;;;19.80;48.90;;;;;;5076497;28;48314;-64
2023/04/30 10:14:12;;;;;;;11.25;9.77;;;19.80;48.80;;;;;;5076360;28;45201;-66
2023/04/30 10:16:43;;;;;;;16.02;13.13;;;19.90;48.70;;;;;;5062295;28;45246;-67
2023/04/30 10:19:13;;;;;;;18.88;13.15;;;19.90;48.70;;;;;;5061096;28;45390;-67
2023/04/30 10:21:40;;;;;;;17.20;12.43;;;19.90;48.90;;;;;;5061403;28;46634;-67
2023/04/30 10:24:08;;;;;;;15.65;12.38;;;19.90;48.70;;;;;;5065353;28;45463;-67
2023/04/30 10:26:35;;;;;;;21.05;14.88;;;20.00;48.90;;;;;;5065027;28;45371;-66
2023/04/30 10:29:02;;;;;;;30.98;16.50;;;20.00;48.90;;;;;;5066775;28;45442;-65
2023/04/30 10:31:29;;;;;;;26.10;18.73;;;20.00;48.80;;;;;;5061749;28;46266;-67
2023/04/30 10:34:03;;;;;;;25.08;18.88;;;20.00;48.70;;;;;;5066176;28;45490;-66
2023/04/30 10:36:44;;;;;;;28.20;18.05;;;20.00;48.70;;;;;;5066610;28;45332;-64
2023/04/30 10:39:12;;;;;;;23.38;16.60;;;20.00;48.70;;;;;;5067045;28;45416;-66
2023/04/30 10:41:39;;;;;;;21.58;15.13;;;20.00;48.70;;;;;;5071423;28;46703;-67
2023/04/30 10:44:07;;;;;;;19.60;13.98;;;20.00;48.50;;;;;;5070034;28;45420;-64
2023/04/30 10:46:35;;;;;;;15.52;11.15;;;20.00;48.50;;;;;;5073993;28;45267;-64
2023/04/30 10:49:03;;;;;;;17.20;10.05;;;20.00;48.30;;;;;;5065853;28;45288;-64
2023/04/30 10:51:46;;;;;;;16.40;8.57;;;20.00;48.30;;;;;;5063860;28;45464;-66
2023/04/30 10:54:16;;;;;;;10.80;6.88;;;20.10;48.30;;;;;;5071949;28;45446;-64
2023/04/30 10:56:44;;;;;;;10.27;6.47;;;20.10;48.30;;;;;;5066173;28;45507;-63
2023/04/30 10:59:11;;;;;;;8.50;5.70;;;20.10;48.40;;;;;;5066828;28;45418;-64
2023/04/30 11:01:56;;;;;;;6.75;5.20;;;20.20;48.30;;;;;;5065533;28;46670;-63
2023/04/30 11:04:25;;;;;;;5.82;4.25;;;20.20;48.30;;;;;;5060550;28;45478;-64
2023/04/30 11:07:10;;;;;;;8.13;4.72;;;20.20;48.20;;;;;;5069008;28;45491;-64
2023/04/30 11:09:40;;;;;;;3.95;3.25;;;20.20;48.30;;;;;;5065052;28;45534;-65
2023/04/30 11:12:12;;;;;;;4.63;3.05;;;20.20;48.20;;;;;;5066238;28;46397;-63
2023/04/30 11:14:43;;;;;;;4.15;3.40;;;20.20;48.00;;;;;;5066531;28;45314;-65
2023/04/30 11:17:11;;;;;;;3.58;2.97;;;20.20;48.00;;;;;;5062557;28;45442;-65
2023/04/30 11:19:48;;;;;;;3.00;2.28;;;20.30;48.20;;;;;;5064164;28;45628;-65
2023/04/30 11:22:23;;;;;;;2.72;2.50;;;20.30;47.90;;;;;;5066105;28;46589;-66
2023/04/30 11:25:08;;;;;;;3.00;2.50;;;20.30;47.90;;;;;;5056334;28;45452;-66
2023/04/30 11:27:36;;;;;;;2.88;2.40;;;20.30;47.80;;;;;;5055068;28;45521;-65
2023/04/30 11:30:03;;;;;;;2.75;2.55;;;20.40;47.90;;;;;;5066046;28;45410;-65
2023/04/30 11:32:33;;;;;;;2.53;2.10;;;20.40;47.80;;;;;;5073987;28;47635;-64
2023/04/30 11:35:02;;;;;;;3.40;2.75;;;20.50;47.50;;;;;;5069274;28;45435;-64
2023/04/30 11:37:31;;;;;;;3.83;3.50;;;20.50;47.50;;;;;;5067706;28;45410;-64
2023/04/30 11:40:00;;;;;;;3.30;2.88;;;20.50;47.30;;;;;;5066408;28;45348;-63
2023/04/30 11:42:28;;;;;;;3.65;2.45;;;20.50;47.30;;;;;;5065922;28;45719;-63
2023/04/30 11:44:55;;;;;;;2.85;2.53;;;20.60;47.40;;;;;;5066047;28;45324;-62
2023/04/30 11:47:22;;;;;;;2.20;2.00;;;20.60;47.20;;;;;;5066192;28;45412;-63
2023/04/30 11:49:52;;;;;;;2.95;2.40;;;20.70;47.30;;;;;;5067209;28;45510;-62
2023/04/30 11:52:25;;;;;;;2.65;1.73;;;20.70;47.10;;;;;;5061069;28;45650;-62
2023/04/30 11:54:56;;;;;;;1.92;1.83;;;20.70;46.90;;;;;;5065211;28;45309;-62
2023/04/30 11:57:23;;;;;;;1.92;1.70;;;20.80;47.30;;;;;;5085611;28;45380;-63
2023/04/30 11:59:50;;;;;;;2.63;1.77;;;20.80;46.60;;;;;;5066864;28;45436;-64
2023/04/30 12:02:17;;;;;;;1.67;1.58;;;20.80;46.40;;;;;;5069127;27;47435;-62
2023/04/30 12:04:44;;;;;;;1.90;1.80;;;20.90;46.50;;;;;;5074650;28;45293;-62
2023/04/30 12:07:10;;;;;;;1.60;1.50;;;20.90;46.40;;;;;;5065183;28;45305;-62
2023/04/30 12:09:54;;;;;;;2.88;1.60;;;20.90;46.40;;;;;;5065984;28;45522;-62
2023/04/30 12:12:28;;;;;;;2.58;1.85;;;20.90;46.40;;;;;;5065463;28;45517;-62
2023/04/30 12:14:55;;;;;;;2.42;1.60;;;20.90;46.40;;;;;;5065511;28;45239;-62
2023/04/30 12:17:32;;;;;;;1.70;1.60;;;20.90;46.20;;;;;;5065175;28;45378;-62
2023/04/30 12:19:59;;;;;;;1.40;1.30;;;20.90;46.20;;;;;;5065660;28;45348;-63
2023/04/30 12:22:26;;;;;;;2.83;1.55;;;20.90;46.10;;;;;;5072702;28;46392;-62
2023/04/30 12:24:53;;;;;;;1.58;1.48;;;20.90;46.10;;;;;;5083531;28;45270;-62
2023/04/30 12:27:21;;;;;;;1.70;1.60;;;20.90;46.10;;;;;;5065259;28;45527;-62
2023/04/30 12:29:49;;;;;;;1.40;1.30;;;21.00;46.00;;;;;;5068089;28;45503;-62
2023/04/30 12:32:18;;;;;;;2.78;1.90;;;21.00;45.70;;;;;;5080030;28;47400;-62
2023/04/30 12:34:45;;;;;;;2.03;1.83;;;21.10;45.80;;;;;;5067888;28;45430;-62
2023/04/30 12:37:15;;;;;;;2.25;1.67;;;21.10;45.60;;;;;;5068854;28;45492;-62
2023/04/30 12:39:42;;;;;;;1.90;1.80;;;21.10;45.70;;;;;;5065404;28;45345;-63
2023/04/30 12:42:09;;;;;;;1.90;1.80;;;21.10;45.60;;;;;;5060890;28;45465;-62
2023/04/30 12:44:44;;;;;;;2.00;1.90;;;21.20;45.60;;;;;;5057479;28;45525;-61
2023/04/30 12:47:11;;;;;;;1.90;1.80;;;21.20;45.40;;;;;;5060897;28;45473;-63
2023/04/30 12:49:38;;;;;;;1.75;1.65;;;21.30;45.50;;;;;;5065809;28;45543;-62